Etusivu
METAR-TAF:

METAR-TAF

Lentoasemat :

F 7 Såtenäs

Såtenäs, Ruotsi

Leveyspiiri: 58-26N, Pituuspiiri: 012-42E, korkeus merenpinnasta: 54 m

Tämänhetkinen sää

Tämä raportti tehtiin 24 minuuttia sitten, kello 23.50 UTC
Tuuli 9 kn idästä/koillisesta
Lämpötila 1°C
Kosteus 93%
Ilmanpaine 1032 hPa
Näkyvyys 10 km tai enemmän

METAR: ESIB 202350Z AUTO 06009KT 9999 OVC023/// 01/00 Q1032

Aika: 01:14 (00:14 UTC)

Sääennuste

Tämä raportti tehtiin 13 tuntia ja 14 minuuttia sitten, kello 11.00 UTC
Ennuste voimassa 20. päivästä klo 12 UTC - 20. päivään klo 16 UTC
Tuuli 9 kn idästä/koillisesta
Näkyvyys 10 km tai enemmän
Hajanaisia pilviä 2500 ft:n korkeudessa
Ajoittain
20. päivästä klo 12 UTC - 20. päivään klo 16 UTC
Hajonneita pilviä 800 ft:n korkeudessa

TAF: ESIB 201100Z 2012/2016 06009KT 9999 SCT025 TEMPO 2012/2016 BKN008 RMK MIL

Säähavainnot ja -ennusteet yli 4000 lentoasemalta (METAR- ja TAF-raportit).

Käytössä olevat sääasemat on merkitty karttaan keltaisilla ja punaisilla pisteillä.

Aseta hiiri pisteen päälle nähdäksesi sääaseman nimen.

Klikkaa sitten nähdäksesi säähavainnot ja -ennusteet.

Kartan vaihtaminen: klikkaa mustalla rastilla varustettuja vihreitä pisteitä, niin voit zoomata sisään; viivalla varustettua vihreää pistettä, niin voit zoomata ulos tai vihreitä nuolia, niin pääset viereisille kartoille.


METAR-TAF: